sensor_id;sensor_type;location;lat;lon;timestamp;pressure;altitude;pressure_sealevel;temperature;humidity
64610;BME280;51019;46.090;6.350;2022-11-12T00:00:38;98133.78;;;4.61;100.00
64610;BME280;51019;46.090;6.350;2022-11-12T00:03:07;98201.69;;;4.91;100.00
64610;BME280;51019;46.090;6.350;2022-11-12T00:05:35;98205.19;;;4.71;100.00
64610;BME280;51019;46.090;6.350;2022-11-12T00:08:03;98205.34;;;4.87;100.00
64610;BME280;51019;46.090;6.350;2022-11-12T00:10:31;98201.44;;;4.77;100.00
64610;BME280;51019;46.090;6.350;2022-11-12T00:12:58;98206.88;;;4.72;100.00
64610;BME280;51019;46.090;6.350;2022-11-12T00:15:26;98202.63;;;4.69;100.00
64610;BME280;51019;46.090;6.350;2022-11-12T00:17:53;98177.53;;;4.50;100.00
64610;BME280;51019;46.090;6.350;2022-11-12T00:20:22;98133.75;;;4.41;100.00
64610;BME280;51019;46.090;6.350;2022-11-12T00:22:49;98183.31;;;4.95;100.00
64610;BME280;51019;46.090;6.350;2022-11-12T00:25:17;98139.59;;;4.66;100.00
64610;BME280;51019;46.090;6.350;2022-11-12T00:27:44;98199.81;;;4.94;100.00
64610;BME280;51019;46.090;6.350;2022-11-12T00:30:12;98198.78;;;4.78;100.00
64610;BME280;51019;46.090;6.350;2022-11-12T00:32:40;98197.16;;;4.96;100.00
64610;BME280;51019;46.090;6.350;2022-11-12T00:35:08;98138.75;;;4.65;100.00
64610;BME280;51019;46.090;6.350;2022-11-12T00:37:38;98197.53;;;5.26;100.00
64610;BME280;51019;46.090;6.350;2022-11-12T00:40:09;98192.53;;;5.02;100.00
64610;BME280;51019;46.090;6.350;2022-11-12T00:42:36;98180.25;;;5.06;100.00
64610;BME280;51019;46.090;6.350;2022-11-12T00:45:05;98196.69;;;5.06;100.00
64610;BME280;51019;46.090;6.350;2022-11-12T00:47:32;98169.63;;;4.92;100.00
64610;BME280;51019;46.090;6.350;2022-11-12T00:49:59;98170.97;;;5.00;100.00
64610;BME280;51019;46.090;6.350;2022-11-12T00:52:27;98173.50;;;5.21;100.00
64610;BME280;51019;46.090;6.350;2022-11-12T00:54:57;98200.44;;;5.38;100.00
64610;BME280;51019;46.090;6.350;2022-11-12T00:57:24;98178.72;;;5.39;100.00
64610;BME280;51019;46.090;6.350;2022-11-12T00:59:52;98182.78;;;5.45;100.00
64610;BME280;51019;46.090;6.350;2022-11-12T01:02:19;98171.53;;;5.26;100.00
64610;BME280;51019;46.090;6.350;2022-11-12T01:04:46;98193.97;;;5.28;100.00
64610;BME280;51019;46.090;6.350;2022-11-12T01:07:14;98185.94;;;5.14;100.00
64610;BME280;51019;46.090;6.350;2022-11-12T01:09:41;98174.00;;;5.29;100.00
64610;BME280;51019;46.090;6.350;2022-11-12T01:12:10;98177.47;;;5.29;100.00
64610;BME280;51019;46.090;6.350;2022-11-12T01:14:38;98180.53;;;5.37;100.00
64610;BME280;51019;46.090;6.350;2022-11-12T01:17:07;98154.81;;;5.13;100.00
64610;BME280;51019;46.090;6.350;2022-11-12T01:19:34;98156.00;;;5.24;100.00
64610;BME280;51019;46.090;6.350;2022-11-12T01:22:02;98177.16;;;5.35;100.00
64610;BME280;51019;46.090;6.350;2022-11-12T01:24:29;98178.78;;;5.19;100.00
64610;BME280;51019;46.090;6.350;2022-11-12T01:26:56;98108.72;;;4.79;100.00
64610;BME280;51019;46.090;6.350;2022-11-12T01:29:25;98173.03;;;5.50;100.00
64610;BME280;51019;46.090;6.350;2022-11-12T01:31:53;98170.88;;;5.58;100.00
64610;BME280;51019;46.090;6.350;2022-11-12T01:34:20;98150.69;;;5.27;100.00
64610;BME280;51019;46.090;6.350;2022-11-12T01:36:48;98177.34;;;5.31;100.00
64610;BME280;51019;46.090;6.350;2022-11-12T01:39:15;98132.13;;;5.16;100.00
64610;BME280;51019;46.090;6.350;2022-11-12T01:41:43;98171.81;;;5.57;100.00
64610;BME280;51019;46.090;6.350;2022-11-12T01:44:13;98175.03;;;5.43;100.00
64610;BME280;51019;46.090;6.350;2022-11-12T01:46:50;98178.00;;;5.36;100.00
64610;BME280;51019;46.090;6.350;2022-11-12T01:49:24;98094.06;;;4.96;100.00
64610;BME280;51019;46.090;6.350;2022-11-12T01:51:56;98160.66;;;5.36;100.00
64610;BME280;51019;46.090;6.350;2022-11-12T01:54:26;98170.56;;;5.47;100.00
64610;BME280;51019;46.090;6.350;2022-11-12T01:56:55;98174.28;;;5.41;100.00
64610;BME280;51019;46.090;6.350;2022-11-12T01:59:26;98160.78;;;5.33;100.00
64610;BME280;51019;46.090;6.350;2022-11-12T02:01:57;98166.63;;;5.38;100.00
64610;BME280;51019;46.090;6.350;2022-11-12T02:04:26;98168.31;;;5.39;100.00
64610;BME280;51019;46.090;6.350;2022-11-12T02:06:56;98154.91;;;5.30;100.00
64610;BME280;51019;46.090;6.350;2022-11-12T02:09:25;98160.00;;;5.50;100.00
64610;BME280;51019;46.090;6.350;2022-11-12T02:11:52;98021.69;;;4.51;100.00
64610;BME280;51019;46.090;6.350;2022-11-12T02:14:20;98162.06;;;5.25;100.00
64610;BME280;51019;46.090;6.350;2022-11-12T02:16:47;98159.03;;;5.34;100.00
64610;BME280;51019;46.090;6.350;2022-11-12T02:19:17;98138.13;;;5.18;100.00
64610;BME280;51019;46.090;6.350;2022-11-12T02:21:46;98095.09;;;5.11;100.00
64610;BME280;51019;46.090;6.350;2022-11-12T02:24:33;98155.25;;;5.41;100.00
64610;BME280;51019;46.090;6.350;2022-11-12T02:27:03;98159.25;;;5.48;100.00
64610;BME280;51019;46.090;6.350;2022-11-12T02:29:31;98137.44;;;5.51;100.00
64610;BME280;51019;46.090;6.350;2022-11-12T02:31:59;98074.13;;;5.16;100.00
64610;BME280;51019;46.090;6.350;2022-11-12T02:34:26;98148.28;;;5.41;100.00
64610;BME280;51019;46.090;6.350;2022-11-12T02:36:55;98155.38;;;5.38;100.00
64610;BME280;51019;46.090;6.350;2022-11-12T02:39:23;98153.75;;;5.35;100.00
64610;BME280;51019;46.090;6.350;2022-11-12T02:41:50;98156.00;;;5.24;100.00
64610;BME280;51019;46.090;6.350;2022-11-12T02:44:17;98117.88;;;5.25;100.00
64610;BME280;51019;46.090;6.350;2022-11-12T02:46:44;98148.63;;;5.34;100.00
64610;BME280;51019;46.090;6.350;2022-11-12T02:49:13;98130.22;;;5.20;100.00
64610;BME280;51019;46.090;6.350;2022-11-12T02:51:41;98144.97;;;5.38;100.00
64610;BME280;51019;46.090;6.350;2022-11-12T02:54:10;98143.69;;;5.46;100.00
64610;BME280;51019;46.090;6.350;2022-11-12T02:56:37;98140.06;;;5.51;100.00
64610;BME280;51019;46.090;6.350;2022-11-12T02:59:05;98133.03;;;5.53;100.00
64610;BME280;51019;46.090;6.350;2022-11-12T03:01:32;98128.41;;;5.40;100.00
64610;BME280;51019;46.090;6.350;2022-11-12T03:03:59;97966.72;;;4.23;100.00
64610;BME280;51019;46.090;6.350;2022-11-12T03:06:27;98127.00;;;5.15;100.00
64610;BME280;51019;46.090;6.350;2022-11-12T03:08:54;98075.66;;;4.82;100.00
64610;BME280;51019;46.090;6.350;2022-11-12T03:11:23;98124.44;;;5.32;100.00
64610;BME280;51019;46.090;6.350;2022-11-12T03:13:51;98128.81;;;5.31;100.00
64610;BME280;51019;46.090;6.350;2022-11-12T03:16:18;98083.03;;;4.91;100.00
64610;BME280;51019;46.090;6.350;2022-11-12T03:18:45;98126.50;;;5.25;100.00
64610;BME280;51019;46.090;6.350;2022-11-12T03:21:13;98133.50;;;5.42;100.00
64610;BME280;51019;46.090;6.350;2022-11-12T03:23:40;98124.88;;;5.41;100.00
64610;BME280;51019;46.090;6.350;2022-11-12T03:26:07;98115.31;;;5.42;100.00
64610;BME280;51019;46.090;6.350;2022-11-12T03:28:36;98120.66;;;5.39;100.00
64610;BME280;51019;46.090;6.350;2022-11-12T03:31:04;98093.81;;;5.20;100.00
64610;BME280;51019;46.090;6.350;2022-11-12T03:33:32;98122.19;;;5.43;100.00
64610;BME280;51019;46.090;6.350;2022-11-12T03:36:00;98131.75;;;5.42;100.00
64610;BME280;51019;46.090;6.350;2022-11-12T03:38:27;98125.47;;;5.29;100.00
64610;BME280;51019;46.090;6.350;2022-11-12T03:40:56;98128.09;;;5.46;100.00
64610;BME280;51019;46.090;6.350;2022-11-12T03:43:24;98128.88;;;5.48;100.00
64610;BME280;51019;46.090;6.350;2022-11-12T03:45:53;98107.66;;;5.39;100.00
64610;BME280;51019;46.090;6.350;2022-11-12T03:48:20;98124.38;;;5.52;100.00
64610;BME280;51019;46.090;6.350;2022-11-12T03:50:47;98120.84;;;5.53;100.00
64610;BME280;51019;46.090;6.350;2022-11-12T03:53:15;98109.97;;;5.45;100.00
64610;BME280;51019;46.090;6.350;2022-11-12T03:55:42;98123.78;;;5.28;100.00
64610;BME280;51019;46.090;6.350;2022-11-12T03:58:09;98121.44;;;5.41;100.00
64610;BME280;51019;46.090;6.350;2022-11-12T04:00:36;98125.59;;;5.26;100.00
64610;BME280;51019;46.090;6.350;2022-11-12T04:03:05;98127.97;;;5.31;100.00
64610;BME280;51019;46.090;6.350;2022-11-12T04:05:33;98128.28;;;5.61;100.00
64610;BME280;51019;46.090;6.350;2022-11-12T04:08:32;98125.69;;;5.61;100.00
64610;BME280;51019;46.090;6.350;2022-11-12T04:11:03;98072.63;;;5.29;100.00
64610;BME280;51019;46.090;6.350;2022-11-12T04:13:32;98125.44;;;5.65;100.00
64610;BME280;51019;46.090;6.350;2022-11-12T04:16:00;98121.34;;;5.61;100.00
64610;BME280;51019;46.090;6.350;2022-11-12T04:18:47;98120.69;;;5.56;100.00
64610;BME280;51019;46.090;6.350;2022-11-12T04:21:35;98123.53;;;5.52;100.00
64610;BME280;51019;46.090;6.350;2022-11-12T04:24:23;98117.41;;;5.53;100.00
64610;BME280;51019;46.090;6.350;2022-11-12T04:27:09;98076.47;;;5.20;100.00
64610;BME280;51019;46.090;6.350;2022-11-12T04:29:38;98109.28;;;5.41;100.00
64610;BME280;51019;46.090;6.350;2022-11-12T04:32:22;97996.97;;;4.80;100.00
64610;BME280;51019;46.090;6.350;2022-11-12T04:34:52;98100.84;;;5.36;100.00
64610;BME280;51019;46.090;6.350;2022-11-12T04:37:22;98093.81;;;5.38;100.00
64610;BME280;51019;46.090;6.350;2022-11-12T04:39:50;98116.16;;;5.42;100.00
64610;BME280;51019;46.090;6.350;2022-11-12T04:42:18;98082.25;;;5.27;100.00
64610;BME280;51019;46.090;6.350;2022-11-12T04:45:05;98078.22;;;5.20;100.00
64610;BME280;51019;46.090;6.350;2022-11-12T04:47:34;98072.28;;;5.18;100.00
64610;BME280;51019;46.090;6.350;2022-11-12T04:50:05;98111.13;;;5.39;100.00
64610;BME280;51019;46.090;6.350;2022-11-12T04:52:33;98010.00;;;4.79;100.00
64610;BME280;51019;46.090;6.350;2022-11-12T04:55:00;98100.00;;;5.36;100.00
64610;BME280;51019;46.090;6.350;2022-11-12T04:57:28;98070.75;;;5.14;100.00
64610;BME280;51019;46.090;6.350;2022-11-12T04:59:55;98025.34;;;4.85;100.00
64610;BME280;51019;46.090;6.350;2022-11-12T05:02:22;98112.88;;;5.39;100.00
64610;BME280;51019;46.090;6.350;2022-11-12T05:04:50;98101.38;;;5.43;100.00
64610;BME280;51019;46.090;6.350;2022-11-12T05:07:19;98088.28;;;5.27;100.00
64610;BME280;51019;46.090;6.350;2022-11-12T05:09:47;98103.53;;;5.35;100.00
64610;BME280;51019;46.090;6.350;2022-11-12T05:12:14;98095.22;;;5.45;100.00
64610;BME280;51019;46.090;6.350;2022-11-12T05:14:42;98003.72;;;4.84;100.00
64610;BME280;51019;46.090;6.350;2022-11-12T05:17:09;98095.72;;;5.35;100.00
64610;BME280;51019;46.090;6.350;2022-11-12T05:19:37;98099.28;;;5.32;100.00
64610;BME280;51019;46.090;6.350;2022-11-12T05:22:05;98075.59;;;5.02;100.00
64610;BME280;51019;46.090;6.350;2022-11-12T05:24:36;98098.41;;;5.15;100.00
64610;BME280;51019;46.090;6.350;2022-11-12T05:27:06;98067.00;;;5.00;100.00
64610;BME280;51019;46.090;6.350;2022-11-12T05:29:34;98099.97;;;5.19;100.00
64610;BME280;51019;46.090;6.350;2022-11-12T05:32:01;98089.06;;;5.10;100.00
64610;BME280;51019;46.090;6.350;2022-11-12T05:34:28;98080.03;;;5.19;100.00
64610;BME280;51019;46.090;6.350;2022-11-12T05:36:56;98034.78;;;4.86;100.00
64610;BME280;51019;46.090;6.350;2022-11-12T05:39:24;98103.81;;;5.29;100.00
64610;BME280;51019;46.090;6.350;2022-11-12T05:41:53;98103.59;;;5.33;100.00
64610;BME280;51019;46.090;6.350;2022-11-12T05:44:21;98041.59;;;4.88;100.00
64610;BME280;51019;46.090;6.350;2022-11-12T05:46:48;98073.53;;;5.09;100.00
64610;BME280;51019;46.090;6.350;2022-11-12T05:49:17;98002.06;;;4.63;100.00
64610;BME280;51019;46.090;6.350;2022-11-12T05:51:44;98084.78;;;5.09;100.00
64610;BME280;51019;46.090;6.350;2022-11-12T05:54:11;98091.47;;;5.15;100.00
64610;BME280;51019;46.090;6.350;2022-11-12T05:56:39;98080.50;;;5.08;100.00
64610;BME280;51019;46.090;6.350;2022-11-12T05:59:11;98096.44;;;5.20;100.00
64610;BME280;51019;46.090;6.350;2022-11-12T06:01:39;98103.19;;;5.24;100.00
64610;BME280;51019;46.090;6.350;2022-11-12T06:04:10;98105.91;;;5.21;100.00
64610;BME280;51019;46.090;6.350;2022-11-12T06:06:38;98106.91;;;5.18;100.00
64610;BME280;51019;46.090;6.350;2022-11-12T06:09:05;98091.81;;;5.07;100.00
64610;BME280;51019;46.090;6.350;2022-11-12T06:11:33;98106.06;;;5.18;100.00
64610;BME280;51019;46.090;6.350;2022-11-12T06:14:03;98054.19;;;4.79;100.00
64610;BME280;51019;46.090;6.350;2022-11-12T06:16:32;98073.06;;;5.01;100.00
64610;BME280;51019;46.090;6.350;2022-11-12T06:18:59;98110.38;;;5.19;100.00
64610;BME280;51019;46.090;6.350;2022-11-12T06:21:26;98077.28;;;5.03;100.00
64610;BME280;51019;46.090;6.350;2022-11-12T06:23:55;98106.63;;;5.24;100.00
64610;BME280;51019;46.090;6.350;2022-11-12T06:26:23;98108.44;;;5.22;100.00
64610;BME280;51019;46.090;6.350;2022-11-12T06:28:51;98035.50;;;4.70;100.00
64610;BME280;51019;46.090;6.350;2022-11-12T06:31:19;97994.72;;;4.54;100.00
64610;BME280;51019;46.090;6.350;2022-11-12T06:33:48;98086.41;;;5.12;100.00
64610;BME280;51019;46.090;6.350;2022-11-12T06:36:17;98116.59;;;5.33;100.00
64610;BME280;51019;46.090;6.350;2022-11-12T06:38:44;98104.03;;;5.24;100.00
64610;BME280;51019;46.090;6.350;2022-11-12T06:41:13;98098.13;;;5.21;100.00
64610;BME280;51019;46.090;6.350;2022-11-12T06:43:41;98120.16;;;5.31;100.00
64610;BME280;51019;46.090;6.350;2022-11-12T06:46:10;97996.41;;;4.55;100.00
64610;BME280;51019;46.090;6.350;2022-11-12T06:48:38;97997.66;;;4.46;100.00
64610;BME280;51019;46.090;6.350;2022-11-12T06:51:10;98084.84;;;5.08;100.00
64610;BME280;51019;46.090;6.350;2022-11-12T06:53:38;98102.75;;;5.33;100.00
64610;BME280;51019;46.090;6.350;2022-11-12T06:56:06;98111.03;;;5.41;100.00
64610;BME280;51019;46.090;6.350;2022-11-12T06:58:33;98109.88;;;5.29;100.00
64610;BME280;51019;46.090;6.350;2022-11-12T07:01:09;98122.34;;;5.40;100.00
64610;BME280;51019;46.090;6.350;2022-11-12T07:03:37;98123.88;;;5.44;100.00
64610;BME280;51019;46.090;6.350;2022-11-12T07:06:08;98125.16;;;5.35;100.00
64610;BME280;51019;46.090;6.350;2022-11-12T07:08:36;98125.59;;;5.26;100.00
64610;BME280;51019;46.090;6.350;2022-11-12T07:11:04;98051.56;;;4.97;100.00
64610;BME280;51019;46.090;6.350;2022-11-12T07:13:32;98124.03;;;5.41;100.00
64610;BME280;51019;46.090;6.350;2022-11-12T07:16:00;98110.53;;;5.33;100.00
64610;BME280;51019;46.090;6.350;2022-11-12T07:18:29;98125.88;;;5.39;100.00
64610;BME280;51019;46.090;6.350;2022-11-12T07:20:58;98131.06;;;5.39;100.00
64610;BME280;51019;46.090;6.350;2022-11-12T07:23:29;98141.16;;;5.45;100.00
64610;BME280;51019;46.090;6.350;2022-11-12T07:25:59;98148.63;;;5.53;100.00
64610;BME280;51019;46.090;6.350;2022-11-12T07:28:28;98115.69;;;5.34;100.00
64610;BME280;51019;46.090;6.350;2022-11-12T07:30:58;98140.97;;;5.50;100.00
64610;BME280;51019;46.090;6.350;2022-11-12T07:33:33;98097.06;;;5.25;100.00
64610;BME280;51019;46.090;6.350;2022-11-12T07:36:02;98063.63;;;4.98;100.00
64610;BME280;51019;46.090;6.350;2022-11-12T07:38:32;98142.00;;;5.45;100.00
64610;BME280;51019;46.090;6.350;2022-11-12T07:41:01;98148.97;;;5.45;100.00
64610;BME280;51019;46.090;6.350;2022-11-12T07:43:29;98031.44;;;4.84;100.00
64610;BME280;51019;46.090;6.350;2022-11-12T07:45:57;98142.59;;;5.52;100.00
64610;BME280;51019;46.090;6.350;2022-11-12T07:48:25;98147.09;;;5.48;100.00
64610;BME280;51019;46.090;6.350;2022-11-12T07:50:58;98140.56;;;5.40;100.00
64610;BME280;51019;46.090;6.350;2022-11-12T07:53:26;98004.41;;;4.69;100.00
64610;BME280;51019;46.090;6.350;2022-11-12T07:55:56;98143.25;;;5.56;100.00
64610;BME280;51019;46.090;6.350;2022-11-12T07:58:24;98145.53;;;5.63;100.00
64610;BME280;51019;46.090;6.350;2022-11-12T08:00:52;98129.72;;;5.49;100.00
64610;BME280;51019;46.090;6.350;2022-11-12T08:03:20;98145.53;;;5.63;100.00
64610;BME280;51019;46.090;6.350;2022-11-12T08:05:47;98142.69;;;5.68;100.00
64610;BME280;51019;46.090;6.350;2022-11-12T08:08:15;98152.88;;;5.72;100.00
64610;BME280;51019;46.090;6.350;2022-11-12T08:10:42;98037.38;;;5.04;100.00
64610;BME280;51019;46.090;6.350;2022-11-12T08:13:11;98159.31;;;5.82;100.00
64610;BME280;51019;46.090;6.350;2022-11-12T08:15:40;98156.31;;;5.92;100.00
64610;BME280;51019;46.090;6.350;2022-11-12T08:18:07;98094.56;;;5.59;100.00
64610;BME280;51019;46.090;6.350;2022-11-12T08:20:34;98165.66;;;5.96;100.00
64610;BME280;51019;46.090;6.350;2022-11-12T08:23:02;98156.47;;;6.06;100.00
64610;BME280;51019;46.090;6.350;2022-11-12T08:25:32;98156.41;;;6.07;100.00
64610;BME280;51019;46.090;6.350;2022-11-12T08:28:00;98156.16;;;5.95;100.00
64610;BME280;51019;46.090;6.350;2022-11-12T08:30:30;98155.91;;;5.99;100.00
64610;BME280;51019;46.090;6.350;2022-11-12T08:32:58;98158.53;;;5.99;100.00
64610;BME280;51019;46.090;6.350;2022-11-12T08:35:27;98068.94;;;5.52;100.00
64610;BME280;51019;46.090;6.350;2022-11-12T08:37:59;98155.25;;;5.96;100.00
64610;BME280;51019;46.090;6.350;2022-11-12T08:40:29;98157.28;;;5.89;100.00
64610;BME280;51019;46.090;6.350;2022-11-12T08:42:58;98157.00;;;5.95;100.00
64610;BME280;51019;46.090;6.350;2022-11-12T08:45:26;98155.06;;;5.99;100.00
64610;BME280;51019;46.090;6.350;2022-11-12T08:48:00;98152.06;;;6.08;100.00
64610;BME280;51019;46.090;6.350;2022-11-12T08:50:28;98157.09;;;6.11;100.00
64610;BME280;51019;46.090;6.350;2022-11-12T08:52:58;98147.00;;;6.05;100.00
64610;BME280;51019;46.090;6.350;2022-11-12T08:55:27;98144.97;;;6.10;100.00
64610;BME280;51019;46.090;6.350;2022-11-12T08:57:55;98114.94;;;5.86;100.00
64610;BME280;51019;46.090;6.350;2022-11-12T09:00:26;98140.25;;;6.18;100.00
64610;BME280;51019;46.090;6.350;2022-11-12T09:02:54;98138.56;;;6.17;100.00
64610;BME280;51019;46.090;6.350;2022-11-12T09:05:24;98137.94;;;6.12;100.00
64610;BME280;51019;46.090;6.350;2022-11-12T09:07:56;98140.94;;;6.04;100.00
64610;BME280;51019;46.090;6.350;2022-11-12T09:10:24;98079.72;;;5.78;100.00
64610;BME280;51019;46.090;6.350;2022-11-12T09:12:52;98140.31;;;6.34;100.00
64610;BME280;51019;46.090;6.350;2022-11-12T09:15:21;98137.88;;;6.31;100.00
64610;BME280;51019;46.090;6.350;2022-11-12T09:17:54;98145.78;;;6.29;100.00
64610;BME280;51019;46.090;6.350;2022-11-12T09:20:21;98134.72;;;6.24;100.00
64610;BME280;51019;46.090;6.350;2022-11-12T09:22:50;98145.38;;;6.37;100.00
64610;BME280;51019;46.090;6.350;2022-11-12T09:25:18;98120.78;;;6.25;100.00
64610;BME280;51019;46.090;6.350;2022-11-12T09:27:45;98147.59;;;6.44;100.00
64610;BME280;51019;46.090;6.350;2022-11-12T09:30:13;98133.50;;;6.48;100.00
64610;BME280;51019;46.090;6.350;2022-11-12T09:32:40;98140.53;;;6.46;100.00
64610;BME280;51019;46.090;6.350;2022-11-12T09:35:08;98136.88;;;6.50;100.00
64610;BME280;51019;46.090;6.350;2022-11-12T09:37:36;98124.69;;;6.51;100.00
64610;BME280;51019;46.090;6.350;2022-11-12T09:40:06;98138.09;;;6.43;100.00
64610;BME280;51019;46.090;6.350;2022-11-12T09:42:39;98126.09;;;6.74;100.00
64610;BME280;51019;46.090;6.350;2022-11-12T09:45:13;98119.16;;;6.57;100.00
64610;BME280;51019;46.090;6.350;2022-11-12T09:47:47;98132.38;;;6.70;100.00
64610;BME280;51019;46.090;6.350;2022-11-12T09:50:20;98128.22;;;6.83;100.00
64610;BME280;51019;46.090;6.350;2022-11-12T09:52:56;98127.31;;;6.84;100.00
64610;BME280;51019;46.090;6.350;2022-11-12T09:55:31;98129.50;;;6.91;100.00
64610;BME280;51019;46.090;6.350;2022-11-12T09:58:00;98085.75;;;6.65;100.00
64610;BME280;51019;46.090;6.350;2022-11-12T10:00:27;98137.56;;;6.87;100.00
64610;BME280;51019;46.090;6.350;2022-11-12T10:03:00;98132.91;;;7.09;100.00
64610;BME280;51019;46.090;6.350;2022-11-12T10:05:34;98110.25;;;6.94;100.00
64610;BME280;51019;46.090;6.350;2022-11-12T10:08:08;98135.91;;;7.02;100.00
64610;BME280;51019;46.090;6.350;2022-11-12T10:10:45;98075.97;;;6.69;100.00
64610;BME280;51019;46.090;6.350;2022-11-12T10:13:24;98144.34;;;7.22;100.00
64610;BME280;51019;46.090;6.350;2022-11-12T10:16:22;98122.47;;;7.09;100.00
64610;BME280;51019;46.090;6.350;2022-11-12T10:19:31;98130.22;;;7.26;100.00
64610;BME280;51019;46.090;6.350;2022-11-12T10:22:14;98135.13;;;7.33;100.00
64610;BME280;51019;46.090;6.350;2022-11-12T10:24:44;98127.44;;;7.45;100.00
64610;BME280;51019;46.090;6.350;2022-11-12T10:27:18;98068.72;;;7.22;100.00
64610;BME280;51019;46.090;6.350;2022-11-12T10:29:54;98126.94;;;7.54;100.00
64610;BME280;51019;46.090;6.350;2022-11-12T10:32:24;98124.91;;;7.59;100.00
64610;BME280;51019;46.090;6.350;2022-11-12T10:34:52;98126.75;;;7.73;100.00
64610;BME280;51019;46.090;6.350;2022-11-12T10:37:22;98119.41;;;7.80;100.00
64610;BME280;51019;46.090;6.350;2022-11-12T10:39:53;98119.22;;;7.83;100.00
64610;BME280;51019;46.090;6.350;2022-11-12T10:42:22;98117.69;;;7.94;100.00
64610;BME280;51019;46.090;6.350;2022-11-12T10:44:50;98111.84;;;8.05;100.00
64610;BME280;51019;46.090;6.350;2022-11-12T10:47:22;98118.91;;;7.89;100.00
64610;BME280;51019;46.090;6.350;2022-11-12T10:50:11;98110.22;;;7.88;100.00
64610;BME280;51019;46.090;6.350;2022-11-12T10:52:53;98093.81;;;7.86;100.00
64610;BME280;51019;46.090;6.350;2022-11-12T10:55:22;98059.59;;;7.91;100.00
64610;BME280;51019;46.090;6.350;2022-11-12T10:58:16;98099.06;;;8.30;100.00
64610;BME280;51019;46.090;6.350;2022-11-12T11:00:57;98082.41;;;8.17;100.00
64610;BME280;51019;46.090;6.350;2022-11-12T11:03:28;98092.13;;;8.59;100.00
64610;BME280;51019;46.090;6.350;2022-11-12T11:06:00;98082.88;;;8.54;100.00
64610;BME280;51019;46.090;6.350;2022-11-12T11:08:40;98079.97;;;8.72;100.00
64610;BME280;51019;46.090;6.350;2022-11-12T11:11:23;98079.91;;;8.74;100.00
64610;BME280;51019;46.090;6.350;2022-11-12T11:13:54;98069.84;;;8.68;100.00
64610;BME280;51019;46.090;6.350;2022-11-12T11:16:23;98061.31;;;8.64;100.00
64610;BME280;51019;46.090;6.350;2022-11-12T11:18:55;98048.34;;;8.63;100.00
64610;BME280;51019;46.090;6.350;2022-11-12T11:21:57;98051.53;;;8.68;100.00
64610;BME280;51019;46.090;6.350;2022-11-12T11:24:35;98044.31;;;8.86;100.00
64610;BME280;51019;46.090;6.350;2022-11-12T11:27:12;98045.91;;;8.88;100.00
64610;BME280;51019;46.090;6.350;2022-11-12T11:30:07;98040.03;;;8.85;100.00
64610;BME280;51019;46.090;6.350;2022-11-12T11:32:46;98030.97;;;8.76;100.00
64610;BME280;51019;46.090;6.350;2022-11-12T11:35:20;98029.38;;;8.88;100.00
64610;BME280;51019;46.090;6.350;2022-11-12T11:38:04;97966.97;;;8.69;100.00
64610;BME280;51019;46.090;6.350;2022-11-12T11:40:45;98020.50;;;8.90;100.00
64610;BME280;51019;46.090;6.350;2022-11-12T11:43:36;97998.03;;;8.73;100.00
64610;BME280;51019;46.090;6.350;2022-11-12T11:46:15;98017.78;;;8.92;100.00
64610;BME280;51019;46.090;6.350;2022-11-12T11:48:54;98011.78;;;9.04;100.00
64610;BME280;51019;46.090;6.350;2022-11-12T11:51:36;98006.94;;;8.98;100.00
64610;BME280;51019;46.090;6.350;2022-11-12T11:54:14;98002.72;;;9.09;100.00
64610;BME280;51019;46.090;6.350;2022-11-12T11:56:50;98003.63;;;9.23;100.00
64610;BME280;51019;46.090;6.350;2022-11-12T11:59:27;98007.66;;;9.14;100.00
64610;BME280;51019;46.090;6.350;2022-11-12T12:02:17;98002.31;;;9.16;100.00
64610;BME280;51019;46.090;6.350;2022-11-12T12:04:50;97993.63;;;9.15;100.00
64610;BME280;51019;46.090;6.350;2022-11-12T12:07:25;97988.91;;;8.93;100.00
64610;BME280;51019;46.090;6.350;2022-11-12T12:10:04;97986.22;;;8.95;100.00
64610;BME280;51019;46.090;6.350;2022-11-12T12:12:45;97975.38;;;9.28;100.00
64610;BME280;51019;46.090;6.350;2022-11-12T12:15:19;97980.69;;;9.26;100.00
64610;BME280;51019;46.090;6.350;2022-11-12T12:18:01;97905.19;;;8.81;100.00
64610;BME280;51019;46.090;6.350;2022-11-12T12:20:40;97963.78;;;9.32;100.00
64610;BME280;51019;46.090;6.350;2022-11-12T12:23:12;97954.44;;;9.28;100.00
64610;BME280;51019;46.090;6.350;2022-11-12T12:25:45;97899.16;;;8.80;100.00
64610;BME280;51019;46.090;6.350;2022-11-12T12:28:26;97888.28;;;8.86;100.00
64610;BME280;51019;46.090;6.350;2022-11-12T12:31:04;97962.00;;;9.05;100.00
64610;BME280;51019;46.090;6.350;2022-11-12T12:33:41;97948.63;;;9.10;100.00
64610;BME280;51019;46.090;6.350;2022-11-12T12:36:12;97901.81;;;8.66;100.00
64610;BME280;51019;46.090;6.350;2022-11-12T12:38:44;97941.78;;;8.81;100.00
64610;BME280;51019;46.090;6.350;2022-11-12T12:41:18;97943.97;;;8.74;100.00
64610;BME280;51019;46.090;6.350;2022-11-12T12:43:55;97869.56;;;8.24;100.00
64610;BME280;51019;46.090;6.350;2022-11-12T12:46:26;97903.63;;;8.37;100.00
64610;BME280;51019;46.090;6.350;2022-11-12T12:48:58;97847.28;;;8.05;100.00
64610;BME280;51019;46.090;6.350;2022-11-12T12:51:29;97835.38;;;8.00;100.00
64610;BME280;51019;46.090;6.350;2022-11-12T12:53:57;97866.28;;;8.76;100.00
64610;BME280;51019;46.090;6.350;2022-11-12T12:56:46;97922.38;;;9.12;100.00
64610;BME280;51019;46.090;6.350;2022-11-12T12:59:22;97915.06;;;9.17;100.00
64610;BME280;51019;46.090;6.350;2022-11-12T13:01:55;97917.88;;;9.53;100.00
64610;BME280;51019;46.090;6.350;2022-11-12T13:04:52;97909.50;;;9.61;100.00
64610;BME280;51019;46.090;6.350;2022-11-12T13:07:37;97894.59;;;9.23;100.00
64610;BME280;51019;46.090;6.350;2022-11-12T13:10:44;97904.88;;;9.52;100.00
64610;BME280;51019;46.090;6.350;2022-11-12T13:13:31;97888.00;;;9.30;100.00
64610;BME280;51019;46.090;6.350;2022-11-12T13:16:01;97895.31;;;9.38;100.00
64610;BME280;51019;46.090;6.350;2022-11-12T13:21:37;97901.31;;;9.40;100.00
64610;BME280;51019;46.090;6.350;2022-11-12T13:24:08;97885.31;;;9.57;100.00